createdAt,value
2019-02-22T00:00:11.721Z,73.78
2019-02-22T00:02:43.705Z,73.88
2019-02-22T00:05:15.725Z,73.77
2019-02-22T00:07:47.700Z,73.82
2019-02-22T00:10:19.690Z,73.95
2019-02-22T00:12:51.686Z,73.96
2019-02-22T00:15:23.647Z,73.93
2019-02-22T00:17:55.654Z,73.86
2019-02-22T00:20:27.622Z,73.97
2019-02-22T00:22:59.623Z,74.12
2019-02-22T00:25:31.572Z,74.13
2019-02-22T00:28:03.591Z,74.22
2019-02-22T00:30:35.537Z,74.63
2019-02-22T00:33:07.541Z,74.89
2019-02-22T00:35:39.530Z,74.93
2019-02-22T00:38:11.526Z,75.14
2019-02-22T00:40:43.497Z,75.07
2019-02-22T00:43:15.483Z,75.01
2019-02-22T00:45:47.441Z,75.11
2019-02-22T00:48:19.415Z,75.16
2019-02-22T00:50:51.393Z,75.04
2019-02-22T00:53:23.381Z,75.12
2019-02-22T00:55:55.365Z,75.12
2019-02-22T00:58:27.359Z,75.01
2019-02-22T01:00:59.328Z,74.95
2019-02-22T01:03:31.296Z,74.93
2019-02-22T01:06:03.268Z,74.97
2019-02-22T01:08:35.252Z,74.95
2019-02-22T01:11:07.224Z,75.01
2019-02-22T01:13:39.244Z,74.95
2019-02-22T01:16:11.202Z,75.00
2019-02-22T01:18:43.211Z,75.03
2019-02-22T01:21:15.205Z,75.02
2019-02-22T01:23:48.364Z,75.03
2019-02-22T01:26:20.250Z,74.93
2019-02-22T01:28:52.236Z,74.98
2019-02-22T01:31:24.208Z,75.11
2019-02-22T01:33:56.263Z,75.04
2019-02-22T01:36:28.233Z,75.17
2019-02-22T01:39:00.217Z,75.20
2019-02-22T01:41:32.172Z,75.17
2019-02-22T01:44:04.160Z,75.11
2019-02-22T01:46:36.134Z,75.30
2019-02-22T01:49:08.129Z,75.68
2019-02-22T01:51:40.077Z,75.72
2019-02-22T01:54:12.074Z,75.83
2019-02-22T01:56:44.004Z,75.75
2019-02-22T01:59:16.834Z,75.97
2019-02-22T02:01:48.798Z,75.94
2019-02-22T02:04:20.804Z,76.14
2019-02-22T02:06:52.744Z,76.23
2019-02-22T02:09:24.740Z,76.33
2019-02-22T02:11:56.674Z,76.43
2019-02-22T02:14:28.653Z,76.46
2019-02-22T02:17:00.608Z,76.57
2019-02-22T02:19:32.607Z,76.46
2019-02-22T02:22:04.575Z,76.45
2019-02-22T02:24:36.554Z,76.30
2019-02-22T02:27:08.506Z,76.17
2019-02-22T02:29:40.488Z,76.04
2019-02-22T02:32:12.480Z,76.10
2019-02-22T02:34:44.438Z,76.16
2019-02-22T02:37:16.464Z,76.28
2019-02-22T02:39:48.429Z,76.40
2019-02-22T02:42:20.461Z,76.55
2019-02-22T02:44:52.429Z,76.59
2019-02-22T02:47:24.427Z,76.44
2019-02-22T02:49:56.401Z,76.32
2019-02-22T02:52:28.388Z,76.14
2019-02-22T02:55:00.487Z,76.05
2019-02-22T02:57:32.401Z,75.98
2019-02-22T03:00:06.579Z,76.02
2019-02-22T03:02:38.553Z,76.15
2019-02-22T03:05:10.503Z,76.16
2019-02-22T03:07:46.334Z,76.26
2019-02-22T03:10:18.299Z,76.52
2019-02-22T03:12:50.296Z,76.58
2019-02-22T03:15:22.244Z,76.84
2019-02-22T03:17:54.263Z,77.05
2019-02-22T03:20:26.245Z,77.16
2019-02-22T03:22:58.231Z,77.27
2019-02-22T03:25:30.193Z,77.13
2019-02-22T03:28:02.196Z,76.48
2019-02-22T03:30:34.139Z,75.87
2019-02-22T03:33:06.121Z,75.95
2019-02-22T03:35:38.083Z,75.91
2019-02-22T03:38:10.075Z,75.78
2019-02-22T03:40:42.025Z,75.96
2019-02-22T03:43:14.006Z,76.15
2019-02-22T03:45:46.021Z,76.41
2019-02-22T03:48:17.978Z,76.67
2019-02-22T03:50:49.940Z,77.24
2019-02-22T03:53:28.507Z,78.12
2019-02-22T03:56:00.414Z,78.87
2019-02-22T03:58:32.602Z,79.12
2019-02-22T04:01:04.601Z,79.27
2019-02-22T04:03:36.635Z,79.39
2019-02-22T04:06:08.593Z,79.66
2019-02-22T04:08:40.597Z,79.60
2019-02-22T04:11:12.564Z,79.43
2019-02-22T04:13:44.561Z,79.19
2019-02-22T04:16:16.532Z,79.14
2019-02-22T04:18:48.533Z,78.82
2019-02-22T04:21:20.534Z,79.25
2019-02-22T04:23:52.640Z,79.52
2019-02-22T04:26:24.578Z,79.73
2019-02-22T04:28:56.553Z,79.92
2019-02-22T04:31:28.511Z,80.51
2019-02-22T04:34:00.511Z,80.61
2019-02-22T04:36:32.494Z,80.87
2019-02-22T04:39:04.867Z,81.18
2019-02-22T04:41:36.866Z,81.39
2019-02-22T04:44:08.840Z,81.59
2019-02-22T04:46:40.792Z,81.89
2019-02-22T04:49:12.786Z,82.14
2019-02-22T04:51:44.801Z,82.42
2019-02-22T04:54:16.856Z,82.59
2019-02-22T04:56:48.805Z,82.90
2019-02-22T04:59:20.815Z,83.02
2019-02-22T05:01:52.809Z,83.13
2019-02-22T05:04:24.834Z,83.33
2019-02-22T05:06:56.850Z,83.49
2019-02-22T05:09:28.894Z,83.68
2019-02-22T05:12:10.446Z,83.70
2019-02-22T05:14:34.796Z,83.69
2019-02-22T05:17:06.762Z,83.82
2019-02-22T05:19:38.751Z,84.04
2019-02-22T05:22:10.791Z,84.19
2019-02-22T05:24:42.812Z,84.38
2019-02-22T05:27:14.809Z,84.49
2019-02-22T05:29:46.770Z,84.54
2019-02-22T05:32:18.789Z,84.57
2019-02-22T05:34:50.843Z,84.58
2019-02-22T05:37:22.952Z,84.62
2019-02-22T05:39:54.939Z,84.69
2019-02-22T05:42:28.682Z,84.81
2019-02-22T05:45:00.868Z,84.90
2019-02-22T05:47:33.938Z,84.93
2019-02-22T05:50:05.918Z,85.09
2019-02-22T05:52:37.918Z,85.16
2019-02-22T05:55:09.997Z,85.13
2019-02-22T05:57:41.972Z,85.14
2019-02-22T06:00:14.853Z,85.22
2019-02-22T06:02:47.153Z,85.24
2019-02-22T06:05:19.192Z,85.32
2019-02-22T06:07:51.201Z,85.31
2019-02-22T06:10:23.179Z,85.50
2019-02-22T06:12:55.187Z,85.50
2019-02-22T06:15:27.176Z,85.48
2019-02-22T06:17:59.171Z,85.59
2019-02-22T06:20:31.141Z,85.73
2019-02-22T06:23:03.287Z,85.64
2019-02-22T06:25:35.301Z,85.59
2019-02-22T06:28:07.273Z,85.77
2019-02-22T06:30:39.263Z,85.85
2019-02-22T06:33:11.249Z,85.77
2019-02-22T06:35:43.217Z,85.70
2019-02-22T06:38:15.207Z,85.78
2019-02-22T06:40:48.255Z,85.81
2019-02-22T06:43:20.319Z,85.81
2019-02-22T06:45:52.293Z,85.82
2019-02-22T06:48:24.310Z,86.08
2019-02-22T06:50:56.304Z,86.05
2019-02-22T06:53:28.270Z,86.07
2019-02-22T06:56:00.279Z,86.08
2019-02-22T06:58:32.351Z,86.12
2019-02-22T07:01:04.366Z,86.17
2019-02-22T07:03:36.332Z,86.27
2019-02-22T07:06:08.334Z,86.16
2019-02-22T07:08:40.305Z,85.95
2019-02-22T07:11:19.975Z,86.19
2019-02-22T07:13:51.941Z,86.41
2019-02-22T07:16:23.990Z,86.49
2019-02-22T07:18:56.049Z,86.49
2019-02-22T07:21:38.844Z,86.47
2019-02-22T07:24:02.733Z,86.53
2019-02-22T07:26:34.985Z,86.58
2019-02-22T07:29:06.960Z,86.66
2019-02-22T07:31:38.966Z,86.60
2019-02-22T07:34:10.928Z,86.70
2019-02-22T07:36:42.920Z,86.76
2019-02-22T07:39:14.905Z,86.72
2019-02-22T07:41:46.903Z,86.71
2019-02-22T07:44:18.892Z,86.62
2019-02-22T07:46:50.998Z,86.66
2019-02-22T07:49:24.959Z,86.64
2019-02-22T07:51:57.003Z,86.58
2019-02-22T07:54:28.966Z,86.53
2019-02-22T07:57:01.001Z,86.44
2019-02-22T07:59:32.970Z,86.34
2019-02-22T08:02:05.177Z,86.28
2019-02-22T08:04:37.145Z,86.16
2019-02-22T08:07:09.157Z,85.84
2019-02-22T08:09:41.189Z,85.51
2019-02-22T08:12:13.217Z,85.50
2019-02-22T08:14:45.269Z,85.45
2019-02-22T08:17:17.287Z,85.14
2019-02-22T08:19:49.276Z,84.98
2019-02-22T08:22:21.328Z,84.06
2019-02-22T08:24:53.332Z,83.90
2019-02-22T08:27:25.330Z,84.09
2019-02-22T08:29:57.329Z,83.99
2019-02-22T08:32:29.342Z,83.77
2019-02-22T08:35:01.325Z,83.63
2019-02-22T08:37:33.322Z,83.27
2019-02-22T08:40:06.258Z,82.88
2019-02-22T08:42:38.245Z,82.75
2019-02-22T08:45:10.232Z,81.81
2019-02-22T08:47:42.257Z,81.28
2019-02-22T08:50:14.643Z,81.26
2019-02-22T08:52:47.050Z,80.58
2019-02-22T08:55:19.098Z,79.91
2019-02-22T08:57:51.110Z,79.62
2019-02-22T09:00:23.064Z,79.69
2019-02-22T09:02:55.082Z,79.50
2019-02-22T09:05:27.082Z,79.19
2019-02-22T09:07:59.109Z,79.19
2019-02-22T09:10:31.072Z,78.75
2019-02-22T09:13:03.166Z,78.35
2019-02-22T09:15:35.175Z,77.58
2019-02-22T09:18:07.174Z,77.63
2019-02-22T09:20:39.190Z,77.36
2019-02-22T09:23:11.238Z,77.35
2019-02-22T09:25:43.225Z,77.50
2019-02-22T09:28:15.232Z,77.02
2019-02-22T09:30:47.271Z,76.43
2019-02-22T09:33:19.218Z,76.44
2019-02-22T09:35:51.264Z,75.12
2019-02-22T09:38:23.229Z,75.92
2019-02-22T09:40:55.225Z,75.69
2019-02-22T09:43:27.202Z,75.85
2019-02-22T09:45:59.189Z,75.94
2019-02-22T09:48:31.166Z,76.29
2019-02-22T09:51:03.171Z,76.50
2019-02-22T09:53:35.131Z,76.79
2019-02-22T09:56:07.117Z,75.30
2019-02-22T09:58:39.082Z,74.74
2019-02-22T10:01:11.083Z,74.00
2019-02-22T10:03:43.052Z,73.97
2019-02-22T10:06:15.061Z,73.29
2019-02-22T10:08:47.043Z,73.79
2019-02-22T10:11:19.031Z,73.49
2019-02-22T10:13:51.008Z,73.61
2019-02-22T10:16:23.019Z,71.58
2019-02-22T10:18:54.968Z,71.88
2019-02-22T10:21:26.980Z,71.54
2019-02-22T10:23:58.934Z,70.99
2019-02-22T10:26:30.969Z,70.77
2019-02-22T10:29:02.921Z,70.68
2019-02-22T10:31:34.923Z,70.56
2019-02-22T10:34:06.883Z,70.71
2019-02-22T10:36:45.111Z,69.90
2019-02-22T10:39:12.788Z,70.08
2019-02-22T10:41:44.793Z,69.53
2019-02-22T10:44:17.944Z,69.18
2019-02-22T10:46:50.138Z,68.32
2019-02-22T10:49:22.207Z,68.37
2019-02-22T10:51:54.230Z,68.04
2019-02-22T10:54:26.221Z,68.12
2019-02-22T10:56:58.218Z,67.88
2019-02-22T10:59:30.207Z,66.70
2019-02-22T11:02:02.218Z,66.42
2019-02-22T11:04:34.215Z,66.44
2019-02-22T11:07:06.226Z,66.50
2019-02-22T11:09:38.217Z,64.45
2019-02-22T11:12:10.306Z,65.32
2019-02-22T11:14:42.306Z,65.32
2019-02-22T11:17:14.266Z,64.95
2019-02-22T11:19:46.268Z,64.78
2019-02-22T11:22:18.314Z,65.51
2019-02-22T11:25:09.872Z,65.28
2019-02-22T11:28:22.891Z,64.83
2019-02-22T11:30:54.886Z,63.97
2019-02-22T11:33:26.842Z,63.22
2019-02-22T11:35:58.803Z,63.37
2019-02-22T11:38:30.816Z,62.59
2019-02-22T11:41:43.654Z,62.74
2019-02-22T11:44:15.682Z,60.45
2019-02-22T11:46:47.744Z,59.70
2019-02-22T11:49:19.781Z,60.10
2019-02-22T11:51:51.782Z,59.38
2019-02-22T11:54:23.801Z,59.18
2019-02-22T11:56:55.849Z,59.17
2019-02-22T11:59:27.871Z,58.45
2019-02-22T12:02:01.105Z,56.87
2019-02-22T12:04:33.140Z,57.31
2019-02-22T12:07:06.381Z,57.91
2019-02-22T12:09:39.455Z,57.80
2019-02-22T12:12:11.488Z,58.00
2019-02-22T12:14:51.155Z,57.20
2019-02-22T12:17:17.555Z,57.02
2019-02-22T12:19:50.643Z,56.96
2019-02-22T12:22:22.642Z,55.30
2019-02-22T12:24:54.631Z,55.82
2019-02-22T12:27:26.677Z,56.38
2019-02-22T12:29:58.715Z,56.89
2019-02-22T12:32:30.754Z,57.39
2019-02-22T12:35:03.129Z,56.81
2019-02-22T12:37:35.205Z,57.07
2019-02-22T12:40:08.010Z,57.20
2019-02-22T12:42:40.008Z,57.62
2019-02-22T12:45:12.067Z,57.22
2019-02-22T12:47:44.074Z,57.43
2019-02-22T12:50:16.076Z,57.78
2019-02-22T12:52:48.119Z,56.82
2019-02-22T12:55:20.131Z,57.20
2019-02-22T12:57:52.219Z,54.20
2019-02-22T13:00:24.286Z,54.97
2019-02-22T13:03:01.966Z,54.72
2019-02-22T13:05:30.237Z,54.84
2019-02-22T13:08:03.977Z,54.72
2019-02-22T13:10:36.022Z,54.94
2019-02-22T13:13:08.186Z,54.53
2019-02-22T13:15:40.207Z,54.09
2019-02-22T13:18:12.208Z,52.45
2019-02-22T13:20:45.583Z,51.81
2019-02-22T13:23:17.784Z,52.01
2019-02-22T13:25:49.781Z,51.04
2019-02-22T13:28:21.836Z,51.61
2019-02-22T13:30:55.646Z,52.44
2019-02-22T13:33:27.683Z,51.68
2019-02-22T13:36:01.095Z,51.96
2019-02-22T13:38:33.203Z,51.11
2019-02-22T13:41:05.223Z,51.63
2019-02-22T13:43:37.268Z,51.05
2019-02-22T13:46:09.298Z,50.73
2019-02-22T13:48:43.114Z,50.65
2019-02-22T13:51:15.092Z,51.49
2019-02-22T13:53:47.184Z,50.95
2019-02-22T13:56:29.242Z,51.20
2019-02-22T13:58:53.159Z,51.66
2019-02-22T14:01:26.221Z,50.84
2019-02-22T14:03:58.429Z,51.49
2019-02-22T14:06:30.477Z,51.66
2019-02-22T14:09:04.405Z,51.32
2019-02-22T14:11:36.418Z,51.75
2019-02-22T14:14:08.466Z,51.28
2019-02-22T14:16:40.493Z,51.55
2019-02-22T14:19:12.491Z,51.83
2019-02-22T14:21:44.642Z,51.71
2019-02-22T14:24:16.618Z,51.04
2019-02-22T14:26:48.644Z,50.85
2019-02-22T14:29:22.864Z,51.10
2019-02-22T14:31:54.543Z,51.44
2019-02-22T14:34:26.576Z,51.82
2019-02-22T14:36:58.715Z,51.90
2019-02-22T14:39:30.692Z,52.02
2019-02-22T14:42:02.736Z,51.81
2019-02-22T14:44:35.058Z,51.70
2019-02-22T14:47:07.086Z,51.94
2019-02-22T14:49:39.295Z,51.53
2019-02-22T14:52:12.814Z,51.73
2019-02-22T14:54:44.941Z,51.20
2019-02-22T14:57:17.335Z,51.30
2019-02-22T14:59:49.555Z,51.82
2019-02-22T15:02:21.562Z,52.15
2019-02-22T15:04:53.523Z,51.86
2019-02-22T15:07:25.785Z,52.12
2019-02-22T15:09:59.030Z,52.37
2019-02-22T15:12:31.230Z,52.72
2019-02-22T15:15:04.186Z,52.69
2019-02-22T15:17:44.401Z,53.22
2019-02-22T15:20:16.431Z,52.73
2019-02-22T15:22:48.506Z,52.33
2019-02-22T15:25:20.492Z,52.42
2019-02-22T15:27:52.884Z,52.16
2019-02-22T15:30:24.888Z,52.43
2019-02-22T15:32:56.952Z,52.71
2019-02-22T15:35:28.941Z,52.94
2019-02-22T15:38:01.003Z,52.98
2019-02-22T15:40:33.064Z,52.79
2019-02-22T15:43:05.118Z,53.18
2019-02-22T15:45:37.162Z,53.10
2019-02-22T15:48:09.185Z,53.38
2019-02-22T15:50:41.471Z,53.67
2019-02-22T15:53:13.526Z,54.04
2019-02-22T15:55:45.552Z,54.37
2019-02-22T15:58:17.584Z,54.49
2019-02-22T16:00:50.668Z,54.98
2019-02-22T16:03:24.194Z,55.13
2019-02-22T16:05:57.590Z,55.14
2019-02-22T16:08:29.597Z,54.04
2019-02-22T16:11:01.646Z,54.32
2019-02-22T16:13:33.861Z,54.01
2019-02-22T16:16:06.014Z,53.39
2019-02-22T16:18:38.039Z,52.57
2019-02-22T16:21:10.125Z,53.00
2019-02-22T16:23:42.330Z,53.38
2019-02-22T16:26:16.278Z,53.58
2019-02-22T16:28:48.375Z,53.76
2019-02-22T16:31:22.221Z,53.75
2019-02-22T16:33:54.289Z,54.12
2019-02-22T16:36:26.347Z,54.23
2019-02-22T16:39:00.188Z,54.71
2019-02-22T16:41:32.193Z,54.41
2019-02-22T16:44:06.000Z,54.74
2019-02-22T16:46:38.009Z,54.95
2019-02-22T16:49:10.002Z,54.97
2019-02-22T16:51:42.325Z,55.28
2019-02-22T16:54:14.390Z,55.63
2019-02-22T16:56:46.567Z,56.10
2019-02-22T16:59:18.681Z,56.08
2019-02-22T17:01:50.746Z,56.30
2019-02-22T17:04:22.742Z,56.66
2019-02-22T17:06:55.032Z,56.87
2019-02-22T17:09:27.009Z,57.25
2019-02-22T17:12:06.330Z,57.88
2019-02-22T17:14:34.373Z,58.15
2019-02-22T17:17:06.443Z,58.56
2019-02-22T17:19:38.511Z,58.69
2019-02-22T17:22:10.571Z,59.12
2019-02-22T17:24:42.575Z,59.44
2019-02-22T17:27:14.709Z,59.85
2019-02-22T17:29:46.699Z,59.98
2019-02-22T17:32:18.916Z,60.19
2019-02-22T17:34:52.045Z,60.42
2019-02-22T17:37:24.113Z,60.87
2019-02-22T17:39:56.164Z,61.04
2019-02-22T17:42:28.380Z,61.11
2019-02-22T17:45:00.427Z,61.22
2019-02-22T17:47:32.660Z,61.71
2019-02-22T17:50:05.087Z,62.12
2019-02-22T17:52:38.958Z,62.48
2019-02-22T17:55:10.971Z,62.89
2019-02-22T17:57:43.023Z,63.21
2019-02-22T18:00:16.991Z,63.34
2019-02-22T18:02:49.074Z,63.33
2019-02-22T18:05:21.109Z,63.37
2019-02-22T18:07:53.230Z,63.48
2019-02-22T18:10:25.257Z,63.62
2019-02-22T18:12:57.292Z,63.98
2019-02-22T18:15:29.442Z,64.23
2019-02-22T18:18:01.536Z,64.54
2019-02-22T18:20:33.536Z,64.48
2019-02-22T18:23:05.608Z,64.49
2019-02-22T18:25:37.635Z,64.63
2019-02-22T18:28:09.747Z,64.79
2019-02-22T18:30:41.999Z,64.95
2019-02-22T18:33:14.023Z,65.05
2019-02-22T18:35:46.202Z,65.17
2019-02-22T18:38:19.297Z,65.17
2019-02-22T18:40:51.312Z,65.56
2019-02-22T18:43:23.381Z,65.55
2019-02-22T18:45:55.547Z,65.79
2019-02-22T18:48:27.594Z,65.89
2019-02-22T18:51:01.442Z,66.40
2019-02-22T18:53:33.478Z,66.90
2019-02-22T18:56:07.393Z,67.17
2019-02-22T18:58:39.461Z,67.30
2019-02-22T19:01:11.479Z,67.61
2019-02-22T19:03:43.491Z,67.58
2019-02-22T19:06:15.598Z,67.80
2019-02-22T19:08:47.700Z,68.09
2019-02-22T19:11:19.852Z,68.36
2019-02-22T19:13:51.945Z,68.71
2019-02-22T19:16:24.121Z,69.02
2019-02-22T19:18:56.143Z,69.52
2019-02-22T19:21:28.251Z,69.67
2019-02-22T19:24:00.401Z,69.89
2019-02-22T19:26:32.831Z,69.88
2019-02-22T19:29:04.913Z,70.20
2019-02-22T19:31:36.992Z,70.31
2019-02-22T19:34:09.065Z,70.56
2019-02-22T19:36:41.104Z,70.53
2019-02-22T19:39:13.848Z,70.44
2019-02-22T19:41:45.968Z,70.84
2019-02-22T19:44:18.022Z,71.22
2019-02-22T19:46:50.147Z,71.46
2019-02-22T19:49:22.539Z,71.42
2019-02-22T19:51:54.646Z,71.56
2019-02-22T19:54:26.806Z,71.78
2019-02-22T19:56:58.859Z,72.18
2019-02-22T19:59:30.923Z,72.11
2019-02-22T20:02:03.057Z,72.29
2019-02-22T20:04:36.587Z,72.48
2019-02-22T20:07:08.808Z,72.84
2019-02-22T20:09:42.219Z,73.68
2019-02-22T20:12:14.384Z,74.30
2019-02-22T20:14:46.485Z,75.26
2019-02-22T20:17:18.720Z,75.14
2019-02-22T20:19:50.941Z,74.90
2019-02-22T20:22:23.007Z,74.72
2019-02-22T20:24:55.269Z,75.25
2019-02-22T20:27:27.390Z,75.34
2019-02-22T20:29:59.972Z,75.28
2019-02-22T20:32:32.127Z,75.82
2019-02-22T20:35:06.376Z,75.91
2019-02-22T20:37:39.018Z,75.81
2019-02-22T20:40:11.196Z,75.93
2019-02-22T20:42:46.326Z,75.78
2019-02-22T20:45:18.538Z,76.20
2019-02-22T20:47:50.587Z,75.50
2019-02-22T20:50:22.775Z,75.48
2019-02-22T20:52:55.917Z,75.87
2019-02-22T20:55:27.968Z,75.95
2019-02-22T20:58:01.108Z,75.47
2019-02-22T21:00:40.408Z,76.42
2019-02-22T21:03:12.440Z,75.34
2019-02-22T21:05:44.708Z,75.60
2019-02-22T21:08:16.861Z,75.77
2019-02-22T21:10:50.140Z,76.00
2019-02-22T21:13:22.250Z,75.81
2019-02-22T21:15:54.368Z,75.82
2019-02-22T21:18:26.429Z,75.92
2019-02-22T21:20:58.483Z,75.83
2019-02-22T21:23:33.541Z,75.06
2019-02-22T21:26:05.657Z,74.89
2019-02-22T21:28:38.802Z,74.90
2019-02-22T21:31:11.083Z,74.88
2019-02-22T21:33:46.325Z,74.94
2019-02-22T21:36:20.326Z,75.19
2019-02-22T21:38:52.349Z,74.42
2019-02-22T21:41:24.514Z,74.21
2019-02-22T21:43:58.331Z,74.21
2019-02-22T21:46:30.363Z,74.65
2019-02-22T21:49:02.372Z,74.92
2019-02-22T21:51:36.571Z,75.74
2019-02-22T21:54:08.816Z,76.09
2019-02-22T21:56:40.894Z,76.01
2019-02-22T21:59:15.682Z,76.54
2019-02-22T22:01:47.753Z,76.77
2019-02-22T22:04:19.790Z,76.96
2019-02-22T22:06:51.847Z,77.08
2019-02-22T22:09:24.076Z,77.27
2019-02-22T22:11:56.193Z,77.30
2019-02-22T22:14:28.228Z,77.39
2019-02-22T22:17:00.280Z,77.47
2019-02-22T22:19:32.337Z,77.78
2019-02-22T22:22:04.523Z,78.19
2019-02-22T22:24:39.273Z,77.93
2019-02-22T22:27:11.399Z,77.95
2019-02-22T22:29:43.480Z,78.01
2019-02-22T22:32:15.552Z,77.81
2019-02-22T22:34:49.616Z,77.58
2019-02-22T22:37:21.638Z,76.98
2019-02-22T22:39:55.494Z,76.88
2019-02-22T22:42:27.524Z,77.01
2019-02-22T22:44:59.637Z,77.46
2019-02-22T22:47:31.623Z,78.15
2019-02-22T22:50:04.402Z,78.10
2019-02-22T22:52:36.362Z,77.92
2019-02-22T22:55:08.813Z,77.37
2019-02-22T22:57:40.808Z,78.19
2019-02-22T23:00:58.997Z,78.15
2019-02-22T23:03:31.043Z,77.73
2019-02-22T23:06:03.586Z,77.63
2019-02-22T23:08:35.637Z,77.58
2019-02-22T23:11:07.649Z,77.58
2019-02-22T23:13:39.645Z,76.50
2019-02-22T23:16:12.184Z,76.87
2019-02-22T23:18:44.218Z,77.21
2019-02-22T23:21:16.238Z,77.07
2019-02-22T23:23:48.271Z,77.18
2019-02-22T23:26:20.256Z,77.43
2019-02-22T23:28:52.323Z,77.79
2019-02-22T23:31:24.439Z,77.82
2019-02-22T23:33:56.428Z,77.57
2019-02-22T23:36:28.463Z,77.38
2019-02-22T23:39:00.467Z,77.54
2019-02-22T23:41:32.497Z,77.81
2019-02-22T23:44:04.617Z,77.76
2019-02-22T23:46:36.681Z,77.91
2019-02-22T23:49:13.229Z,77.46
2019-02-22T23:51:42.551Z,77.07
2019-02-22T23:54:14.527Z,76.22
2019-02-22T23:56:46.553Z,76.32
2019-02-22T23:59:18.561Z,77.98
